地図

経路データ

SID SEASON NUMBER BASIN SUBBASIN NAME ISO_TIME NATURE LAT LON WMO_WIND WMO_PRES WMO_AGENCY TRACK_TYPE DIST2LAND LANDFALL IFLAG USA_AGENCY USA_ATCF_ID USA_LAT USA_LON USA_RECORD USA_STATUS USA_WIND USA_PRES USA_SSHS USA_R34_NE USA_R34_SE USA_R34_SW USA_R34_NW USA_R50_NE USA_R50_SE USA_R50_SW USA_R50_NW USA_R64_NE USA_R64_SE USA_R64_SW USA_R64_NW USA_POCI USA_ROCI USA_RMW USA_EYE TOKYO_LAT TOKYO_LON TOKYO_GRADE TOKYO_WIND TOKYO_PRES TOKYO_R50_DIR TOKYO_R50_LONG TOKYO_R50_SHORT TOKYO_R30_DIR TOKYO_R30_LONG TOKYO_R30_SHORT TOKYO_LAND CMA_LAT CMA_LON CMA_CAT CMA_WIND CMA_PRES HKO_LAT HKO_LON HKO_CAT HKO_WIND HKO_PRES NEWDELHI_LAT NEWDELHI_LON NEWDELHI_GRADE NEWDELHI_WIND NEWDELHI_PRES NEWDELHI_CI NEWDELHI_DP NEWDELHI_POCI REUNION_LAT REUNION_LON REUNION_TYPE REUNION_WIND REUNION_PRES REUNION_TNUM REUNION_CI REUNION_RMW REUNION_R34_NE REUNION_R34_SE REUNION_R34_SW REUNION_R34_NW REUNION_R50_NE REUNION_R50_SE REUNION_R50_SW REUNION_R50_NW REUNION_R64_NE REUNION_R64_SE REUNION_R64_SW REUNION_R64_NW BOM_LAT BOM_LON BOM_TYPE BOM_WIND BOM_PRES BOM_TNUM BOM_CI BOM_RMW BOM_R34_NE BOM_R34_SE BOM_R34_SW BOM_R34_NW BOM_R50_NE BOM_R50_SE BOM_R50_SW BOM_R50_NW BOM_R64_NE BOM_R64_SE BOM_R64_SW BOM_R64_NW BOM_ROCI BOM_POCI BOM_EYE BOM_POS_METHOD BOM_PRES_METHOD NADI_LAT NADI_LON NADI_CAT NADI_WIND NADI_PRES WELLINGTON_LAT WELLINGTON_LON WELLINGTON_WIND WELLINGTON_PRES DS824_LAT DS824_LON DS824_STAGE DS824_WIND DS824_PRES TD9636_LAT TD9636_LON TD9636_STAGE TD9636_WIND TD9636_PRES TD9635_LAT TD9635_LON TD9635_WIND TD9635_PRES TD9635_ROCI NEUMANN_LAT NEUMANN_LON NEUMANN_CLASS NEUMANN_WIND NEUMANN_PRES MLC_LAT MLC_LON MLC_CLASS MLC_WIND MLC_PRES USA_GUST BOM_GUST BOM_GUST_PER REUNION_GUST REUNION_GUST_PER USA_SEAHGT USA_SEARAD_NE USA_SEARAD_SE USA_SEARAD_SW USA_SEARAD_NW STORM_SPEED STORM_DIR
1987196N15258 1987 44 EP MM DORA 1987-07-15 00:00:00 TS 15.3000 -102.500 25 hurdat_epa main 269 269 O_________O___ hurdat_epa EP041987 15.3000 -102.500 TD 25 -1 15.3000 -102.500 1 25 13 279
1987196N15258 1987 44 EP MM DORA 1987-07-15 03:00:00 TS 15.3969 -103.150 main 295 295 P_________P___ EP041987 15.3930 -103.162 TD 27 -1 15.4088 -103.114 1 27 13 279
1987196N15258 1987 44 EP MM DORA 1987-07-15 06:00:00 TS 15.5059 -103.783 30 hurdat_epa main 306 303 O_________P___ hurdat_epa EP041987 15.5000 -103.800 TD 30 -1 15.5235 -103.733 1 30 12 281
1987196N15258 1987 44 EP MM DORA 1987-07-15 09:00:00 TS 15.6389 -104.390 main 316 309 P_________P___ EP041987 15.6347 -104.400 TD 32 -1 15.6514 -104.360 1 32 12 284
1987196N15258 1987 44 EP MM DORA 1987-07-15 12:00:00 TS 15.8000 -105.000 35 hurdat_epa main 322 322 O_________O___ hurdat_epa EP041987 15.8000 -105.000 TS 35 0 15.8000 -105.000 2 35 13 286
1987196N15258 1987 44 EP MM DORA 1987-07-15 15:00:00 TS 15.9932 -105.651 main 347 347 P_________P___ EP041987 15.9999 -105.650 TS 35 0 15.9728 -105.653 2 35 13 287
1987196N15258 1987 44 EP MM DORA 1987-07-15 18:00:00 TS 16.1894 -106.300 35 hurdat_epa main 371 371 O_________P___ hurdat_epa EP041987 16.2000 -106.300 TS 35 0 16.1576 -106.302 2 35 13 286
1987196N15258 1987 44 EP MM DORA 1987-07-15 21:00:00 TS 16.3527 -106.923 main 384 384 P_________P___ EP041987 16.3574 -106.923 TS 35 0 16.3385 -106.925 2 35 12 285
1987196N15258 1987 44 EP MM DORA 1987-07-16 00:00:00 TS 16.5000 -107.500 35 hurdat_epa main 415 415 O_________O___ hurdat_epa EP041987 16.5000 -107.500 TS 35 0 16.5000 -107.500 2 35 11 286
1987196N15258 1987 44 EP MM DORA 1987-07-16 03:00:00 TS 16.6548 -108.024 main 438 438 P_________P___ EP041987 16.6649 -108.030 TS 35 0 16.6248 -108.005 2 35 10 287
1987196N15258 1987 44 EP MM DORA 1987-07-16 06:00:00 TS 16.7822 -108.490 35 hurdat_epa main 468 468 O_________P___ hurdat_epa EP041987 16.8000 -108.500 TS 35 0 16.7289 -108.461 2 35 9 283
1987196N15258 1987 44 EP MM DORA 1987-07-16 09:00:00 TS 16.8533 -108.902 main 492 492 P_________P___ EP041987 16.8648 -108.908 TS 35 0 16.8187 -108.886 2 35 8 279
1987196N15258 1987 44 EP MM DORA 1987-07-16 12:00:00 TS 16.9000 -109.300 35 hurdat_epa main 525 525 O_________O___ hurdat_epa EP041987 16.9000 -109.300 TS 35 0 16.9000 -109.300 2 35 8 277
1987196N15258 1987 44 EP MM DORA 1987-07-16 15:00:00 TS 16.9483 -109.749 main 560 560 P_________P___ EP041987 16.9425 -109.750 TS 35 0 16.9658 -109.745 2 36 9 277
1987196N15258 1987 44 EP MM DORA 1987-07-16 18:00:00 TS 17.0068 -110.195 35 hurdat_epa main 598 598 O_________P___ hurdat_epa EP041987 17.0000 -110.200 TS 35 0 17.0273 -110.181 2 37 8 280
1987196N15258 1987 44 EP MM DORA 1987-07-16 21:00:00 TS 17.0887 -110.606 main 627 627 P_________P___ EP041987 17.0849 -110.608 TS 37 0 17.1002 -110.601 2 38 8 284
1987196N15258 1987 44 EP MM DORA 1987-07-17 00:00:00 TS 17.2000 -111.000 40 hurdat_epa main 646 638 O_________O___ hurdat_epa EP041987 17.2000 -111.000 TS 40 0 17.2000 -111.000 2 40 8 288
1987196N15258 1987 44 EP MM DORA 1987-07-17 03:00:00 TS 17.3357 -111.406 main 643 629 P_________P___ EP041987 17.3350 -111.415 TS 40 0 17.3378 -111.380 2 42 8 292
1987196N15258 1987 44 EP MM DORA 1987-07-17 06:00:00 TS 17.5012 -111.784 40 hurdat_epa main 632 621 O_________P___ hurdat_epa EP041987 17.5000 -111.800 TS 40 0 17.5047 -111.738 2 45 8 298
1987196N15258 1987 44 EP MM DORA 1987-07-17 09:00:00 TS 17.6872 -112.105 main 621 612 P_________P___ EP041987 17.6849 -112.115 TS 45 0 17.6942 -112.077 2 47 7 304
1987196N15258 1987 44 EP MM DORA 1987-07-17 12:00:00 TS 17.9000 -112.400 50 hurdat_epa main 612 601 O_________O___ hurdat_epa EP041987 17.9000 -112.400 TS 50 0 17.9000 -112.400 2 50 7 308
1987196N15258 1987 44 EP MM DORA 1987-07-17 15:00:00 TS 18.1391 -112.706 main 605 592 P_________P___ EP041987 18.1500 -112.700 TS 50 0 18.1064 -112.723 2 48 8 310
1987196N15258 1987 44 EP MM DORA 1987-07-17 18:00:00 TS 18.3818 -113.008 50 hurdat_epa main 592 588 O_________P___ hurdat_epa EP041987 18.4000 -113.000 TS 50 0 18.3273 -113.030 2 47 7 308
1987196N15258 1987 44 EP MM DORA 1987-07-17 21:00:00 TS 18.5955 -113.317 main 590 585 P_________P___ EP041987 18.6075 -113.315 TS 47 0 18.5596 -113.323 2 46 7 307
1987196N15258 1987 44 EP MM DORA 1987-07-18 00:00:00 TS 18.8000 -113.600 45 hurdat_epa main 591 588 O_________O___ hurdat_epa EP041987 18.8000 -113.600 TS 45 0 18.8000 -113.600 2 45 6 311
1987196N15258 1987 44 EP MM DORA 1987-07-18 03:00:00 TS 19.0003 -113.816 main 588 585 P_________P___ EP041987 18.9849 -113.800 TS 45 0 19.0467 -113.865 2 43 6 316
1987196N15258 1987 44 EP MM DORA 1987-07-18 06:00:00 TS 19.2249 -114.029 45 hurdat_epa main 585 585 O_________P___ hurdat_epa EP041987 19.2000 -114.000 TS 45 0 19.2997 -114.115 2 42 7 318
1987196N15258 1987 44 EP MM DORA 1987-07-18 09:00:00 TS 19.5133 -114.309 main 585 585 P_________P___ EP041987 19.5001 -114.292 TS 42 0 19.5529 -114.358 2 41 8 317
1987196N15258 1987 44 EP MM DORA 1987-07-18 12:00:00 TS 19.8000 -114.600 40 hurdat_epa main 588 588 O_________O___ hurdat_epa EP041987 19.8000 -114.600 TS 40 0 19.8000 -114.600 2 40 7 314
1987196N15258 1987 44 EP MM DORA 1987-07-18 15:00:00 TS 20.0126 -114.860 main 595 582 P_________P___ EP041987 20.0074 -114.858 TS 37 0 20.0282 -114.866 2 38 6 311
1987196N15258 1987 44 EP MM DORA 1987-07-18 18:00:00 TS 20.2125 -115.108 35 hurdat_epa main 588 582 O_________P___ hurdat_epa EP041987 20.2000 -115.100 TS 35 0 20.2501 -115.130 2 37 6 313
1987196N15258 1987 44 EP MM DORA 1987-07-18 21:00:00 TS 20.4499 -115.363 main 588 573 P_________P___ EP041987 20.4425 -115.358 TS 35 0 20.4719 -115.379 2 36 7 317
1987196N15258 1987 44 EP MM DORA 1987-07-19 00:00:00 TS 20.7000 -115.600 35 hurdat_epa main 573 562 O_________O___ hurdat_epa EP041987 20.7000 -115.600 TS 35 0 20.7000 -115.600 2 35 7 320
1987196N15258 1987 44 EP MM DORA 1987-07-19 03:00:00 TS 20.9583 -115.814 main 560 558 P_________P___ EP041987 20.9500 -115.823 TS 32 -1 20.9833 -115.787 2 33 6 325
1987196N15258 1987 44 EP MM DORA 1987-07-19 06:00:00 TS 21.2168 -115.986 30 hurdat_epa main 558 550 O_________P___ hurdat_epa EP041987 21.2000 -116.000 TD 30 -1 21.2673 -115.945 2 32 6 331
1987196N15258 1987 44 EP MM DORA 1987-07-19 09:00:00 TS 21.4613 -116.106 main 542 535 P_________P___ EP041987 21.4425 -116.115 TD 30 -1 21.5177 -116.081 2 31 5 338
1987196N15258 1987 44 EP MM DORA 1987-07-19 12:00:00 TS 21.7000 -116.200 30 hurdat_epa main 535 522 O_________O___ hurdat_epa EP041987 21.7000 -116.200 TD 30 -1 21.7000 -116.200 1 30 6 342
1987196N15258 1987 44 EP MM DORA 1987-07-19 15:00:00 TS 22.0093 -116.302 main 522 515 P_________P___ EP041987 22.0825 -116.300 TD 27 -1 21.7898 -116.309 1 28 5 338
1987196N15258 1987 44 EP MM DORA 1987-07-19 18:00:00 TS 22.1756 -116.403 25 hurdat_epa main 517 517 O_________P___ hurdat_epa EP041987 22.3000 -116.400 TD 25 -1 21.8026 -116.410 1 27 2 277
1987196N15258 1987 44 EP MM DORA 1987-07-19 21:00:00 TS 22.0329 -116.502 main 538 538 P_________P___ EP041987 22.1225 -116.500 TD 25 -1 21.7641 -116.506 1 26 5 201
1987196N15258 1987 44 EP MM DORA 1987-07-20 00:00:00 TS 21.7000 -116.600 25 hurdat_epa main 567 O_________O___ hurdat_epa EP041987 21.7000 -116.600 TD 25 -1 21.7000 -116.600 1 25 7 195

IBTrACS Databaseについて

本データベースは、米国NOAAが公開する1842年以降の世界の熱帯低気圧のベストトラックデータアーカイブInternational Best Track Archive for Climate Stewardship (IBTrACS)を、ウェブで閲覧しやすい形式に変換したものです。

最終更新日:2021-12-01